Für Piloten

Informationen für Piloten zum Flugplatz Borken-Hoxfeld
Hier findest Du alle relevanten Informationen, die Du als Pilot benötigst, um Borken-Hoxfeld anzufliegen.

Flugplatz: Borken-Hoxfeld ICAO-Code: EDLY
Borken-Hoxfeld Info: 122,930 Mhz
GAFOR Gebiet: 32
Platzrunde: Motorflug; -> Südplatzrunde; Segelflug; -> Nordplatzrunde;
Landegebühr: z.Zt. 5,00 Euro
Platzhöhe: 48m üMSL
Pisten: 12/30 – 740 m x 30 m, GRAS
Betriebszeiten: PPR (in den Sommermonaten Mittagspause beachten)

 

Wetterforecast:

Available data for EDDL from the past 2 hours
DUESSELDORF
Metar
EDDL 070850Z 25011KT 9999 FEW015 SCT020 OVC048 09/07 Q1013 NOSIG

08:50 UTC

Wind: 250° 11kt

Visibility: 9999 m

Sky: FEW 1500 ft

Temp: 9 deg C / 48.2 deg F

Dewpoint: 7 deg C / 44.6 deg F

Pressure: 1013 hPa

TAF
TAF EDDL 070500Z 0706/0812 25012KT 9999 BKN020 PROB40 TEMPO 0706/0711 BKN012 BECMG 0717/0720 19010KT BECMG 0805/0808 20015G25KT TEMPO 0809/0812 21020G30KT RA

Alle obigen Informationen ersetzen nicht die vorgeschriebene, persönliche Flugvorbereitung.